Fruto, California
Current Conditions -  °F | °C
As of 10:35 PM on Tuesday 27 Jan 2015 (Local Time) from KCIC Reporting Station
Overcast Overcast  
Wind Chill: 50°   Ceiling: 11000
Heat Index: 50°   Visibility: 10mi
Dew Point: 48°   Wind: 0mph
Humidity: 94%   Direction: NA
Pressure: 30.29"   Gusts: NA
Location:  39.5041°N, 122.217°W
Report Text: KCIC 280635Z AUTO 00000KT 10SM OVC110 10/09 A3029 RMK AO1
Loading
Personal Weather Stations






























Interactive Weather Map New forecast layout! Learn more

10-Day Weather Forecast

Advertisements
Track Severe Weather on mobile